Time;durP1;ratioP1;P1;durP2;ratioP2;P2;SDS_P1;SDS_P2;PMS_P1;PMS_P2;Temp;Humidity;BMP_temperature;BMP_pressure;BME280_temperature;BME280_humidity;BME280_pressure;Samples;Min_cycle;Max_cycle;Signal;HPM_P1;HPM_P2
2021/03/23 00:00:16;;;;;;;1.27;0.77;;;19.60;46.30;;;;;;5066149;28;20469;-70
2021/03/23 00:02:46;;;;;;;1.20;1.10;;;19.60;46.30;;;;;;5055411;28;20482;-70
2021/03/23 00:05:14;;;;;;;2.00;0.90;;;19.60;46.30;;;;;;5066431;28;20482;-70
2021/03/23 00:07:40;;;;;;;6.37;0.80;;;19.60;46.30;;;;;;5044029;28;20617;-71
2021/03/23 00:10:08;;;;;;;3.43;1.07;;;19.60;46.30;;;;;;5051227;28;21336;-70
2021/03/23 00:12:35;;;;;;;2.23;0.90;;;19.60;46.30;;;;;;5054718;28;20504;-71
2021/03/23 00:15:01;;;;;;;1.20;0.60;;;19.70;46.40;;;;;;5052980;28;20474;-71
2021/03/23 00:17:28;;;;;;;0.77;0.60;;;19.70;46.40;;;;;;5052348;28;21435;-71
2021/03/23 00:19:54;;;;;;;1.13;0.80;;;19.70;46.40;;;;;;5041425;28;20485;-71
2021/03/23 00:22:21;;;;;;;1.90;0.70;;;19.70;46.40;;;;;;5051812;28;20500;-70
2021/03/23 00:24:47;;;;;;;1.37;0.50;;;19.70;46.40;;;;;;5052855;28;20473;-70
2021/03/23 00:27:13;;;;;;;1.47;1.37;;;19.70;46.40;;;;;;5055661;28;20523;-69
2021/03/23 00:29:39;;;;;;;1.83;0.60;;;19.60;46.30;;;;;;5059786;28;20484;-71
2021/03/23 00:32:06;;;;;;;1.73;1.63;;;19.60;46.30;;;;;;5041553;28;20478;-71
2021/03/23 00:34:32;;;;;;;0.97;0.63;;;19.70;46.40;;;;;;5047686;28;20538;-70
2021/03/23 00:37:01;;;;;;;1.03;0.80;;;19.70;46.40;;;;;;5072655;28;20473;-70
2021/03/23 00:39:28;;;;;;;0.80;0.60;;;19.80;46.40;;;;;;5049726;28;20489;-69
2021/03/23 00:41:54;;;;;;;3.67;0.60;;;19.80;46.10;;;;;;5050558;28;20484;-70
2021/03/23 00:44:20;;;;;;;2.20;0.57;;;19.80;46.00;;;;;;5063231;28;20500;-70
2021/03/23 00:46:46;;;;;;;0.60;0.60;;;19.80;46.00;;;;;;5053648;28;21713;-70
2021/03/23 00:49:12;;;;;;;1.17;0.80;;;19.80;46.00;;;;;;5043587;28;20478;-69
2021/03/23 00:51:39;;;;;;;0.70;0.50;;;19.80;46.20;;;;;;5048682;28;20483;-70
2021/03/23 00:54:05;;;;;;;1.57;0.60;;;19.70;46.10;;;;;;5041574;28;20482;-70
2021/03/23 00:56:32;;;;;;;1.53;0.77;;;19.70;46.20;;;;;;5051732;28;20465;-70
2021/03/23 00:58:58;;;;;;;1.23;1.13;;;19.70;46.10;;;;;;5055339;28;20493;-70
2021/03/23 01:01:24;;;;;;;1.33;0.83;;;19.70;46.10;;;;;;5053025;28;20899;-71
2021/03/23 01:03:50;;;;;;;0.50;0.50;;;19.70;46.10;;;;;;5051158;28;20493;-70
2021/03/23 01:06:16;;;;;;;1.00;0.70;;;19.70;46.00;;;;;;5072358;28;20489;-70
2021/03/23 01:08:43;;;;;;;1.73;1.00;;;19.70;46.00;;;;;;5056425;28;20473;-71
2021/03/23 01:11:09;;;;;;;2.53;0.60;;;19.60;45.80;;;;;;5053295;28;20481;-70
2021/03/23 01:13:36;;;;;;;0.60;0.60;;;19.70;45.80;;;;;;5053380;28;20477;-70
2021/03/23 01:16:04;;;;;;;1.90;1.53;;;19.60;45.80;;;;;;5071788;28;20505;-70
2021/03/23 01:18:30;;;;;;;5.93;1.00;;;19.60;45.70;;;;;;5057480;28;20477;-69
2021/03/23 01:20:56;;;;;;;0.40;0.40;;;19.60;45.80;;;;;;5051425;28;21017;-70
2021/03/23 01:23:22;;;;;;;1.20;0.53;;;19.70;45.90;;;;;;5050925;28;21070;-70
2021/03/23 01:25:48;;;;;;;0.70;0.70;;;19.60;45.80;;;;;;5052909;28;20513;-70
2021/03/23 01:28:14;;;;;;;4.43;0.50;;;19.70;45.80;;;;;;5054398;28;20485;-71
2021/03/23 01:30:41;;;;;;;0.60;0.60;;;19.70;45.80;;;;;;5055827;28;20478;-70
2021/03/23 01:33:07;;;;;;;0.60;0.60;;;19.70;45.70;;;;;;5055907;28;20490;-70
2021/03/23 01:35:34;;;;;;;0.50;0.50;;;19.70;45.80;;;;;;5054218;28;20474;-70
2021/03/23 01:38:00;;;;;;;0.97;0.60;;;19.80;45.80;;;;;;5060326;28;20485;-70
2021/03/23 01:40:27;;;;;;;1.53;0.50;;;19.80;45.70;;;;;;5053201;28;20520;-71
2021/03/23 01:42:54;;;;;;;1.73;0.83;;;19.70;45.80;;;;;;5054884;28;20540;-71
2021/03/23 01:45:29;;;;;;;0.93;0.63;;;19.70;45.80;;;;;;5056043;28;20491;-70
2021/03/23 01:47:57;;;;;;;0.60;0.60;;;19.70;45.70;;;;;;5052841;28;20543;-71
2021/03/23 01:50:23;;;;;;;0.80;0.70;;;19.70;45.60;;;;;;5055801;28;20493;-71
2021/03/23 01:52:54;;;;;;;0.50;0.50;;;19.70;45.70;;;;;;5058736;28;20835;-70
2021/03/23 01:55:20;;;;;;;0.60;0.57;;;19.70;45.50;;;;;;5056712;28;20474;-70
2021/03/23 01:57:46;;;;;;;0.70;0.40;;;19.70;45.40;;;;;;5057390;28;20564;-70
2021/03/23 02:00:13;;;;;;;1.37;0.70;;;19.70;45.40;;;;;;5054717;28;21186;-70
2021/03/23 02:02:39;;;;;;;0.60;0.60;;;19.70;45.30;;;;;;5059630;28;20470;-71
2021/03/23 02:05:08;;;;;;;1.13;0.50;;;19.70;45.30;;;;;;5043823;28;20470;-70
2021/03/23 02:07:34;;;;;;;0.87;0.87;;;19.70;45.30;;;;;;5077132;28;20478;-70
2021/03/23 02:10:00;;;;;;;0.97;0.50;;;19.60;45.30;;;;;;5059907;28;20488;-70
2021/03/23 02:12:27;;;;;;;1.37;0.50;;;19.60;45.20;;;;;;5071385;28;20489;-70
2021/03/23 02:14:54;;;;;;;0.57;0.50;;;19.70;45.40;;;;;;5053046;28;20496;-70
2021/03/23 02:17:26;;;;;;;0.50;0.50;;;19.60;45.00;;;;;;5059029;28;20485;-70
2021/03/23 02:19:55;;;;;;;0.63;0.50;;;19.60;45.20;;;;;;5057663;28;20576;-70
2021/03/23 02:22:23;;;;;;;0.83;0.40;;;19.60;45.30;;;;;;5056219;28;20486;-70
2021/03/23 02:24:49;;;;;;;1.10;0.50;;;19.70;45.40;;;;;;5054099;28;20895;-70
2021/03/23 02:27:16;;;;;;;0.57;0.57;;;19.70;45.30;;;;;;5077336;28;20499;-70
2021/03/23 02:29:42;;;;;;;1.27;0.70;;;19.70;45.20;;;;;;5060584;28;20503;-70
2021/03/23 02:32:08;;;;;;;1.07;1.07;;;19.80;45.20;;;;;;5069969;28;20485;-71
2021/03/23 02:34:35;;;;;;;0.80;0.77;;;19.80;45.10;;;;;;5053224;28;20871;-69
2021/03/23 02:37:01;;;;;;;1.33;0.70;;;19.80;45.10;;;;;;5055468;28;20498;-70
2021/03/23 02:39:30;;;;;;;0.50;0.40;;;19.80;45.00;;;;;;5056276;28;20501;-70
2021/03/23 02:41:56;;;;;;;0.50;0.50;;;19.80;45.10;;;;;;5052746;28;20487;-70
2021/03/23 02:44:23;;;;;;;2.40;0.60;;;19.80;45.30;;;;;;5052249;28;20493;-71
2021/03/23 02:46:49;;;;;;;0.60;0.60;;;19.80;45.40;;;;;;5057353;28;20476;-71
2021/03/23 02:49:15;;;;;;;0.60;0.40;;;19.70;45.20;;;;;;5054731;28;20489;-70
2021/03/23 02:51:41;;;;;;;0.90;0.70;;;19.70;45.10;;;;;;5058683;28;20481;-70
2021/03/23 02:54:07;;;;;;;0.60;0.60;;;19.70;45.10;;;;;;5058499;28;22533;-70
2021/03/23 02:56:34;;;;;;;0.80;0.50;;;19.70;45.10;;;;;;5054028;28;20475;-70
2021/03/23 02:59:01;;;;;;;1.10;0.90;;;19.70;45.10;;;;;;5053220;28;20500;-71
2021/03/23 03:01:27;;;;;;;1.33;0.53;;;19.70;45.10;;;;;;5054199;28;20485;-70
2021/03/23 03:03:53;;;;;;;1.00;0.60;;;19.70;45.00;;;;;;5048773;28;20498;-70
2021/03/23 03:06:19;;;;;;;1.13;0.67;;;19.70;45.00;;;;;;5067563;28;20493;-70
2021/03/23 03:08:45;;;;;;;0.50;0.47;;;19.60;44.90;;;;;;5051622;28;20482;-70
2021/03/23 03:11:11;;;;;;;1.27;0.60;;;19.60;44.90;;;;;;5057238;28;20482;-70
2021/03/23 03:13:38;;;;;;;0.50;0.50;;;19.60;44.90;;;;;;5051443;28;20508;-71
2021/03/23 03:16:05;;;;;;;5.93;0.60;;;19.60;45.00;;;;;;5050492;28;20473;-70
2021/03/23 03:18:31;;;;;;;1.10;0.53;;;19.70;45.00;;;;;;5057557;28;20493;-71
2021/03/23 03:20:58;;;;;;;1.40;0.67;;;19.60;45.10;;;;;;5052985;28;20500;-71
2021/03/23 03:23:24;;;;;;;2.13;0.60;;;19.60;45.10;;;;;;5049050;28;20482;-70
2021/03/23 03:25:50;;;;;;;1.17;0.70;;;19.60;45.10;;;;;;5052366;28;20478;-69
2021/03/23 03:28:17;;;;;;;0.50;0.50;;;19.60;45.10;;;;;;5053738;28;21137;-68
2021/03/23 03:30:44;;;;;;;2.50;0.60;;;19.60;45.00;;;;;;5052256;28;20484;-69
2021/03/23 03:33:11;;;;;;;1.80;0.83;;;19.60;44.90;;;;;;5050572;28;20520;-70
2021/03/23 03:35:42;;;;;;;0.47;0.47;;;19.60;44.90;;;;;;5050039;28;20477;-70
2021/03/23 03:38:08;;;;;;;1.30;0.70;;;19.60;45.00;;;;;;5051154;28;21445;-70
2021/03/23 03:40:35;;;;;;;1.00;1.00;;;19.60;45.00;;;;;;5055360;28;20477;-70
2021/03/23 03:43:02;;;;;;;1.90;0.90;;;19.60;45.00;;;;;;5054878;28;22681;-69
2021/03/23 03:45:28;;;;;;;0.50;0.50;;;19.60;45.00;;;;;;5068867;28;21008;-70
2021/03/23 03:47:56;;;;;;;0.90;0.80;;;19.60;44.90;;;;;;5072339;28;20494;-71
2021/03/23 03:50:23;;;;;;;0.70;0.70;;;19.60;44.90;;;;;;5051505;28;20542;-70
2021/03/23 03:52:49;;;;;;;0.93;0.83;;;19.60;44.90;;;;;;5051875;28;20502;-70
2021/03/23 03:55:16;;;;;;;1.17;0.60;;;19.60;44.90;;;;;;5051193;28;20538;-70
2021/03/23 03:57:42;;;;;;;1.07;0.80;;;19.60;44.60;;;;;;5049771;28;20494;-70
2021/03/23 04:00:09;;;;;;;1.03;0.60;;;19.50;44.80;;;;;;5049618;28;20490;-70
2021/03/23 04:02:35;;;;;;;0.63;0.60;;;19.50;44.70;;;;;;5048260;28;21145;-70
2021/03/23 04:05:02;;;;;;;0.60;0.60;;;19.50;44.90;;;;;;5051472;28;20490;-70
2021/03/23 04:07:28;;;;;;;0.50;0.50;;;19.50;44.80;;;;;;5048865;28;20506;-70
2021/03/23 04:09:55;;;;;;;0.70;0.63;;;19.50;44.70;;;;;;5048620;28;20551;-70
2021/03/23 04:12:21;;;;;;;2.20;1.03;;;19.50;44.60;;;;;;5052109;28;20477;-70
2021/03/23 04:14:47;;;;;;;2.27;1.00;;;19.50;44.60;;;;;;5052484;28;20501;-70
2021/03/23 04:17:13;;;;;;;3.07;0.73;;;19.40;44.50;;;;;;5054372;28;20485;-69
2021/03/23 04:19:39;;;;;;;0.50;0.50;;;19.40;44.50;;;;;;5052415;28;20478;-70
2021/03/23 04:22:06;;;;;;;1.10;0.80;;;19.50;44.30;;;;;;5049224;28;20481;-70
2021/03/23 04:24:32;;;;;;;1.40;0.63;;;19.70;44.10;;;;;;5050738;28;20548;-69
2021/03/23 04:26:59;;;;;;;5.23;0.90;;;19.70;43.90;;;;;;5051261;28;20477;-71
2021/03/23 04:29:25;;;;;;;1.17;0.80;;;19.80;43.80;;;;;;5044962;28;20553;-70
2021/03/23 04:31:51;;;;;;;0.97;0.70;;;19.80;43.90;;;;;;5076401;28;20558;-70
2021/03/23 04:34:17;;;;;;;1.47;0.70;;;19.80;44.10;;;;;;5051048;28;20486;-70
2021/03/23 04:36:44;;;;;;;1.33;0.77;;;19.70;44.00;;;;;;5052233;28;20495;-70
2021/03/23 04:39:11;;;;;;;0.80;0.80;;;19.70;44.10;;;;;;5052899;28;20482;-69
2021/03/23 04:41:38;;;;;;;2.30;1.00;;;19.70;44.30;;;;;;5050634;28;20480;-70
2021/03/23 04:44:04;;;;;;;0.60;0.60;;;19.60;44.20;;;;;;5046682;28;20474;-70
2021/03/23 04:46:31;;;;;;;1.43;0.80;;;19.70;45.00;;;;;;5054219;28;20484;-70
2021/03/23 04:48:57;;;;;;;0.77;0.77;;;19.60;44.10;;;;;;5049730;28;21312;-69
2021/03/23 04:51:25;;;;;;;0.77;0.77;;;19.60;44.10;;;;;;5051909;28;20481;-70
2021/03/23 04:53:51;;;;;;;2.40;0.70;;;19.60;44.10;;;;;;5045354;28;20494;-70
2021/03/23 04:56:20;;;;;;;1.33;0.50;;;19.60;43.80;;;;;;5052510;28;20491;-70
2021/03/23 04:58:47;;;;;;;1.43;0.80;;;19.70;43.80;;;;;;5052206;28;20498;-70
2021/03/23 05:01:13;;;;;;;1.50;1.00;;;19.60;43.90;;;;;;5048958;28;20474;-70
2021/03/23 05:03:39;;;;;;;0.90;0.90;;;19.70;44.00;;;;;;5049107;28;20481;-69
2021/03/23 05:06:09;;;;;;;0.80;0.73;;;19.60;44.10;;;;;;5054644;28;20489;-69
2021/03/23 05:08:36;;;;;;;2.23;0.73;;;19.60;44.10;;;;;;5054811;28;20477;-69
2021/03/23 05:11:04;;;;;;;0.83;0.80;;;19.70;44.20;;;;;;5054767;28;20489;-69
2021/03/23 05:13:31;;;;;;;0.80;0.80;;;19.70;44.20;;;;;;5048730;28;21938;-70
2021/03/23 05:15:57;;;;;;;1.33;1.00;;;19.60;44.10;;;;;;5051538;28;20945;-70
2021/03/23 05:18:23;;;;;;;0.80;0.80;;;19.60;43.90;;;;;;5051074;28;20482;-69
2021/03/23 05:20:49;;;;;;;0.87;0.87;;;19.60;43.90;;;;;;5052406;28;20547;-70
2021/03/23 05:23:16;;;;;;;1.00;0.83;;;19.60;43.80;;;;;;5051326;28;20478;-70
2021/03/23 05:25:42;;;;;;;0.73;0.73;;;19.60;43.80;;;;;;5053219;28;20496;-70
2021/03/23 05:28:08;;;;;;;0.50;0.50;;;19.70;44.00;;;;;;5044015;28;20585;-68
2021/03/23 05:30:36;;;;;;;2.37;0.53;;;19.70;43.60;;;;;;5069083;28;20480;-70
2021/03/23 05:33:02;;;;;;;1.43;0.97;;;19.70;43.40;;;;;;5035868;28;20619;-70
2021/03/23 05:35:28;;;;;;;1.87;0.97;;;19.80;43.30;;;;;;5056938;28;20504;-69
2021/03/23 05:37:54;;;;;;;2.00;1.13;;;19.80;43.20;;;;;;5041744;28;20626;-69
2021/03/23 05:40:22;;;;;;;0.80;0.80;;;19.80;43.20;;;;;;5052188;28;20909;-70
2021/03/23 05:42:49;;;;;;;1.20;0.70;;;19.90;43.10;;;;;;5047342;28;21047;-70
2021/03/23 05:45:17;;;;;;;2.53;0.80;;;19.90;42.90;;;;;;5053835;28;20489;-70
2021/03/23 05:47:44;;;;;;;2.30;0.97;;;19.90;43.00;;;;;;5049962;28;20498;-69
2021/03/23 05:50:15;;;;;;;1.03;1.03;;;19.90;42.90;;;;;;5040908;28;21267;-70
2021/03/23 05:52:43;;;;;;;0.83;0.83;;;19.90;42.80;;;;;;5030349;28;20608;-70
2021/03/23 05:55:18;;;;;;;1.87;0.87;;;19.90;42.80;;;;;;5046998;28;20481;-70
2021/03/23 05:57:45;;;;;;;1.20;0.80;;;19.90;42.80;;;;;;5044898;28;20922;-70
2021/03/23 06:00:19;;;;;;;7.57;0.90;;;19.80;42.80;;;;;;5052765;28;20546;-70
2021/03/23 06:02:49;;;;;;;4.73;1.00;;;19.80;43.20;;;;;;5048803;28;20481;-71
2021/03/23 06:05:30;;;;;;;1.07;0.93;;;19.80;43.20;;;;;;5052856;28;20470;-70
2021/03/23 06:07:59;;;;;;;1.47;1.10;;;19.80;43.20;;;;;;5046685;28;20558;-70
2021/03/23 06:10:25;;;;;;;1.00;0.80;;;19.80;43.20;;;;;;5050321;28;20523;-69
2021/03/23 06:12:57;;;;;;;1.07;0.87;;;19.80;43.20;;;;;;5047248;28;20482;-69
2021/03/23 06:15:26;;;;;;;2.13;1.40;;;19.80;43.00;;;;;;5049384;28;20473;-70
2021/03/23 06:17:58;;;;;;;2.70;1.20;;;19.80;42.90;;;;;;5052622;28;20481;-69
2021/03/23 06:20:40;;;;;;;1.00;1.00;;;19.80;42.90;;;;;;5054075;28;20502;-70
2021/03/23 06:23:32;;;;;;;3.67;1.10;;;19.80;42.80;;;;;;5056796;28;20477;-69
2021/03/23 06:26:02;;;;;;;1.80;1.30;;;19.80;42.80;;;;;;5048054;28;20489;-71
2021/03/23 06:28:39;;;;;;;1.17;1.07;;;19.80;43.00;;;;;;5050087;28;20509;-71
2021/03/23 06:31:10;;;;;;;1.27;0.90;;;19.80;43.20;;;;;;5054719;28;20992;-70
2021/03/23 06:33:37;;;;;;;2.83;1.33;;;19.90;43.10;;;;;;5052554;28;20480;-69
2021/03/23 06:36:09;;;;;;;1.10;1.00;;;19.90;43.00;;;;;;5041978;28;20908;-70
2021/03/23 06:38:37;;;;;;;1.13;0.73;;;20.00;42.80;;;;;;5056417;28;21136;-70
2021/03/23 06:41:25;;;;;;;2.30;1.60;;;19.90;42.80;;;;;;5054847;28;20515;-70
2021/03/23 06:43:52;;;;;;;1.47;0.97;;;19.90;42.80;;;;;;5049622;28;20489;-70
2021/03/23 06:46:38;;;;;;;4.93;0.80;;;19.90;42.90;;;;;;5058081;28;20493;-69
2021/03/23 06:49:30;;;;;;;3.37;1.10;;;19.90;43.00;;;;;;5057275;28;20635;-70
2021/03/23 06:52:16;;;;;;;1.20;1.20;;;19.80;42.90;;;;;;5050788;28;20497;-70
2021/03/23 06:54:42;;;;;;;1.67;1.57;;;19.80;42.90;;;;;;5048449;28;20559;-71
2021/03/23 06:57:19;;;;;;;1.20;1.20;;;19.80;42.90;;;;;;5057585;28;20477;-70
2021/03/23 06:59:47;;;;;;;2.53;2.03;;;19.80;43.10;;;;;;5046635;28;20570;-70
2021/03/23 07:02:27;;;;;;;2.97;1.40;;;19.80;43.00;;;;;;5053348;28;20799;-71
2021/03/23 07:04:54;;;;;;;1.57;1.47;;;19.80;43.00;;;;;;5070742;28;20490;-70
2021/03/23 07:07:21;;;;;;;1.03;1.00;;;19.80;42.80;;;;;;5055164;28;20944;-70
2021/03/23 07:09:49;;;;;;;3.50;1.70;;;19.80;42.90;;;;;;5057248;28;20489;-70
2021/03/23 07:12:15;;;;;;;1.37;1.27;;;19.80;42.90;;;;;;5056517;28;20486;-71
2021/03/23 07:14:43;;;;;;;1.87;1.00;;;19.80;43.00;;;;;;5051806;28;20582;-71
2021/03/23 07:17:23;;;;;;;1.20;1.20;;;19.80;43.10;;;;;;5071701;28;20506;-70
2021/03/23 07:19:50;;;;;;;5.93;1.40;;;19.80;43.20;;;;;;5053309;28;20468;-71
2021/03/23 07:22:19;;;;;;;5.00;1.30;;;19.80;43.20;;;;;;5054762;28;20507;-71
2021/03/23 07:24:50;;;;;;;1.40;1.30;;;19.80;44.10;;;;;;5054622;28;20497;-70
2021/03/23 07:27:17;;;;;;;1.27;1.10;;;19.80;43.40;;;;;;5050958;28;20477;-71
2021/03/23 07:29:44;;;;;;;1.13;1.13;;;19.80;43.50;;;;;;5066612;28;20477;-71
2021/03/23 07:32:29;;;;;;;2.50;1.07;;;19.80;43.50;;;;;;5071003;28;20485;-71
2021/03/23 07:34:59;;;;;;;1.80;1.70;;;19.80;43.50;;;;;;5051386;28;20469;-71
2021/03/23 07:37:32;;;;;;;1.27;1.00;;;19.80;43.40;;;;;;5049363;28;20473;-71
2021/03/23 07:40:00;;;;;;;1.20;1.20;;;19.90;43.50;;;;;;5047079;28;20499;-71
2021/03/23 07:42:27;;;;;;;1.97;1.20;;;19.80;43.40;;;;;;5046206;28;22010;-71
2021/03/23 07:44:55;;;;;;;2.10;1.07;;;19.90;43.50;;;;;;5049369;28;21013;-71
2021/03/23 07:47:27;;;;;;;1.60;1.00;;;19.90;43.60;;;;;;5053521;28;20988;-71
2021/03/23 07:49:56;;;;;;;2.20;1.13;;;19.80;43.60;;;;;;5048225;28;20474;-71
2021/03/23 07:52:24;;;;;;;5.03;1.57;;;19.80;43.60;;;;;;5049160;28;20470;-71
2021/03/23 07:54:51;;;;;;;1.57;1.47;;;19.80;43.70;;;;;;5052522;28;20504;-71
2021/03/23 07:57:34;;;;;;;4.63;1.50;;;19.80;43.60;;;;;;5049366;28;20469;-71
2021/03/23 08:00:12;;;;;;;1.50;1.40;;;19.80;43.70;;;;;;5047397;28;20489;-71
2021/03/23 08:02:55;;;;;;;5.40;1.43;;;19.70;43.80;;;;;;5047620;28;20481;-71
2021/03/23 08:05:27;;;;;;;1.53;1.43;;;19.70;43.80;;;;;;5049113;28;21080;-71
2021/03/23 08:07:55;;;;;;;1.93;1.80;;;19.70;43.80;;;;;;5049185;28;20498;-71
2021/03/23 08:10:27;;;;;;;1.50;1.50;;;19.70;43.80;;;;;;5071284;28;21010;-71
2021/03/23 08:13:12;;;;;;;2.20;1.53;;;19.70;43.80;;;;;;5050582;28;20944;-71
2021/03/23 08:16:05;;;;;;;2.43;1.67;;;19.70;43.90;;;;;;5050242;28;20493;-70
2021/03/23 08:19:11;;;;;;;2.50;1.20;;;19.70;43.90;;;;;;5049347;28;20480;-70
2021/03/23 08:21:50;;;;;;;3.40;1.00;;;19.70;44.00;;;;;;5049715;28;20635;-71
2021/03/23 08:24:30;;;;;;;1.17;1.17;;;19.70;44.10;;;;;;5058829;28;20471;-70
2021/03/23 08:27:16;;;;;;;1.30;1.20;;;19.70;44.10;;;;;;5066027;28;20537;-70
2021/03/23 08:29:48;;;;;;;1.73;1.20;;;19.60;44.10;;;;;;5030440;28;20473;-70
2021/03/23 08:32:18;;;;;;;1.80;1.20;;;19.70;44.20;;;;;;5041075;28;20465;-70
2021/03/23 08:35:07;;;;;;;1.00;1.00;;;19.70;44.20;;;;;;5030389;28;20465;-70
2021/03/23 08:37:40;;;;;;;2.30;1.30;;;19.70;44.20;;;;;;5044861;28;20504;-70
2021/03/23 08:40:11;;;;;;;1.67;1.13;;;19.70;44.10;;;;;;5045759;28;20595;-70
2021/03/23 08:42:38;;;;;;;1.30;1.20;;;19.70;44.10;;;;;;5048641;28;20481;-70
2021/03/23 08:45:07;;;;;;;3.70;1.50;;;19.80;44.20;;;;;;5049539;28;20921;-70
2021/03/23 08:47:34;;;;;;;1.20;1.10;;;19.80;44.20;;;;;;5049632;28;20494;-69
2021/03/23 08:50:04;;;;;;;2.50;1.00;;;19.70;44.20;;;;;;5050003;28;20510;-70
2021/03/23 08:52:36;;;;;;;2.93;1.10;;;19.80;44.40;;;;;;5058962;28;20489;-70
2021/03/23 08:55:04;;;;;;;1.60;1.50;;;19.70;44.30;;;;;;5050075;28;20490;-70
2021/03/23 08:57:47;;;;;;;2.60;1.63;;;19.70;44.20;;;;;;5046742;28;21584;-71
2021/03/23 09:00:46;;;;;;;2.63;1.63;;;19.80;44.30;;;;;;5032676;28;20894;-71
2021/03/23 09:03:40;;;;;;;1.30;1.30;;;19.80;44.20;;;;;;5027959;28;20477;-71
2021/03/23 09:06:10;;;;;;;2.40;1.23;;;19.80;44.20;;;;;;5046773;28;20493;-70
2021/03/23 09:08:41;;;;;;;3.87;1.33;;;19.80;44.30;;;;;;5045699;28;20588;-70
2021/03/23 09:11:12;;;;;;;1.90;1.80;;;19.80;44.20;;;;;;5041252;28;20873;-71
2021/03/23 09:14:21;;;;;;;3.10;1.67;;;19.80;44.20;;;;;;5070623;28;20539;-69
2021/03/23 09:16:50;;;;;;;2.60;1.50;;;19.90;44.10;;;;;;5040691;28;20471;-70
2021/03/23 09:19:35;;;;;;;2.80;1.80;;;19.90;44.10;;;;;;5049188;28;20865;-70
2021/03/23 09:22:32;;;;;;;3.03;2.20;;;20.00;44.10;;;;;;5037669;28;20489;-71
2021/03/23 09:25:43;;;;;;;1.43;1.33;;;20.00;44.10;;;;;;5047732;28;20493;-71
2021/03/23 09:28:10;;;;;;;1.60;1.50;;;19.90;44.00;;;;;;5041643;28;20493;-69
2021/03/23 09:30:55;;;;;;;3.50;1.43;;;19.90;44.00;;;;;;5065506;28;21264;-71
2021/03/23 09:33:35;;;;;;;1.73;1.63;;;20.00;44.00;;;;;;5049850;28;20480;-70
2021/03/23 09:36:26;;;;;;;1.57;1.40;;;20.00;44.00;;;;;;5062397;28;21126;-70
2021/03/23 09:38:52;;;;;;;2.63;1.53;;;20.00;44.10;;;;;;5046038;28;20493;-71
2021/03/23 09:41:27;;;;;;;2.00;1.90;;;20.00;43.90;;;;;;5044803;28;20478;-71
2021/03/23 09:43:54;;;;;;;1.43;1.43;;;20.00;43.90;;;;;;5068854;28;20479;-71
2021/03/23 09:46:40;;;;;;;1.77;1.60;;;20.00;43.80;;;;;;5046660;28;20490;-70
2021/03/23 09:49:14;;;;;;;2.67;2.13;;;20.00;43.80;;;;;;5047908;28;20486;-69
2021/03/23 09:51:48;;;;;;;1.57;1.47;;;20.00;43.80;;;;;;5047593;28;20589;-71
2021/03/23 09:54:20;;;;;;;1.80;1.70;;;20.00;43.70;;;;;;5042710;28;20486;-70
2021/03/23 09:56:47;;;;;;;2.43;2.23;;;20.10;43.80;;;;;;5043988;28;20482;-70
2021/03/23 09:59:15;;;;;;;3.83;1.77;;;20.10;43.80;;;;;;5019752;28;20484;-70
2021/03/23 10:01:52;;;;;;;1.80;1.70;;;20.10;43.70;;;;;;5047285;28;20490;-70
2021/03/23 10:04:25;;;;;;;1.57;1.50;;;20.10;43.70;;;;;;5048271;28;20476;-71
2021/03/23 10:06:51;;;;;;;2.07;1.90;;;20.10;43.50;;;;;;5053945;28;21843;-70
2021/03/23 10:09:24;;;;;;;2.07;1.87;;;20.10;43.50;;;;;;5053502;28;20478;-70
2021/03/23 10:11:50;;;;;;;1.97;1.87;;;20.10;43.50;;;;;;5045271;28;20481;-71
2021/03/23 10:14:20;;;;;;;3.90;2.30;;;20.10;43.70;;;;;;5052056;28;20481;-70
2021/03/23 10:16:46;;;;;;;2.37;2.27;;;20.10;43.60;;;;;;5042621;28;20488;-70
2021/03/23 10:19:20;;;;;;;1.73;1.63;;;20.10;43.60;;;;;;5050310;28;20484;-70
2021/03/23 10:21:48;;;;;;;2.07;1.87;;;20.10;43.60;;;;;;5035542;28;21111;-70
2021/03/23 10:24:15;;;;;;;2.10;1.70;;;20.10;43.60;;;;;;5073560;28;20472;-70
2021/03/23 10:26:44;;;;;;;4.83;1.97;;;20.10;43.70;;;;;;5064613;28;20545;-70
2021/03/23 10:29:12;;;;;;;2.30;2.07;;;20.10;43.60;;;;;;5054117;28;20472;-69
2021/03/23 10:31:40;;;;;;;2.00;1.90;;;20.10;43.70;;;;;;5069504;28;20477;-69
2021/03/23 10:34:08;;;;;;;2.23;2.00;;;20.10;43.70;;;;;;5052313;28;20481;-70
2021/03/23 10:36:46;;;;;;;4.20;1.87;;;20.10;43.80;;;;;;5048323;28;20638;-69
2021/03/23 10:39:36;;;;;;;3.43;1.80;;;20.10;43.70;;;;;;5048775;28;20484;-70
2021/03/23 10:42:20;;;;;;;1.90;1.77;;;20.10;44.50;;;;;;5050785;28;20484;-69
2021/03/23 10:44:46;;;;;;;2.00;1.90;;;20.10;43.60;;;;;;5045780;28;20482;-69
2021/03/23 10:47:34;;;;;;;4.83;2.57;;;20.10;43.60;;;;;;5054647;28;20480;-68
2021/03/23 10:50:17;;;;;;;4.63;2.07;;;20.10;43.60;;;;;;5060902;28;20492;-69
2021/03/23 10:52:44;;;;;;;8.43;2.17;;;20.10;43.60;;;;;;5050254;28;20505;-69
2021/03/23 10:55:27;;;;;;;6.03;2.83;;;20.10;43.60;;;;;;5049042;28;20486;-71
2021/03/23 10:58:18;;;;;;;2.10;1.90;;;20.10;43.60;;;;;;5048256;28;20547;-70
2021/03/23 11:00:45;;;;;;;1.80;1.70;;;20.10;43.70;;;;;;5063773;28;20489;-70
2021/03/23 11:03:13;;;;;;;3.10;2.80;;;20.10;43.70;;;;;;5051282;28;21034;-70
2021/03/23 11:05:42;;;;;;;3.53;2.57;;;20.10;43.70;;;;;;5049823;28;21651;-70
2021/03/23 11:08:12;;;;;;;2.33;2.07;;;20.10;43.80;;;;;;5067614;28;20484;-69
2021/03/23 11:10:38;;;;;;;4.20;3.17;;;20.10;43.70;;;;;;5056565;28;20493;-70
2021/03/23 11:13:04;;;;;;;2.10;1.90;;;20.10;43.70;;;;;;5084315;28;20491;-70
2021/03/23 11:15:35;;;;;;;2.33;2.10;;;20.10;43.80;;;;;;5052457;28;20486;-71
2021/03/23 11:18:02;;;;;;;3.07;2.77;;;20.10;43.70;;;;;;5049671;28;21294;-71
2021/03/23 11:20:34;;;;;;;4.00;2.13;;;20.10;43.80;;;;;;5040747;28;20570;-70
2021/03/23 11:23:03;;;;;;;2.17;2.07;;;20.10;43.70;;;;;;5048829;28;20504;-71
2021/03/23 11:25:30;;;;;;;2.27;2.10;;;20.10;43.80;;;;;;5053629;28;20490;-71
2021/03/23 11:27:56;;;;;;;3.33;2.50;;;20.10;43.70;;;;;;5053058;28;20563;-70
2021/03/23 11:30:24;;;;;;;2.50;2.30;;;20.10;43.80;;;;;;5046177;28;20564;-71
2021/03/23 11:32:50;;;;;;;4.63;2.50;;;20.10;43.70;;;;;;5050296;28;20537;-70
2021/03/23 11:35:17;;;;;;;2.93;2.00;;;20.10;43.70;;;;;;5050776;28;20842;-71
2021/03/23 11:37:43;;;;;;;4.33;2.80;;;20.00;43.70;;;;;;5048409;28;20552;-70
2021/03/23 11:40:10;;;;;;;3.60;2.60;;;20.00;43.70;;;;;;5039453;28;20498;-70
2021/03/23 11:42:38;;;;;;;3.87;3.40;;;20.00;43.70;;;;;;5047966;28;20848;-70
2021/03/23 11:45:07;;;;;;;5.90;2.70;;;20.00;43.70;;;;;;5048269;28;20512;-70
2021/03/23 11:47:40;;;;;;;2.63;2.40;;;20.00;43.80;;;;;;5050306;28;21468;-70
2021/03/23 11:50:10;;;;;;;2.33;2.13;;;20.00;43.80;;;;;;5041382;28;20552;-70
2021/03/23 11:52:36;;;;;;;4.97;3.00;;;20.00;43.80;;;;;;5050849;28;20482;-71
2021/03/23 11:55:04;;;;;;;5.63;3.07;;;20.00;43.80;;;;;;5049949;28;20585;-71
2021/03/23 11:57:30;;;;;;;2.73;2.47;;;19.90;43.80;;;;;;5049770;28;20480;-69
2021/03/23 11:59:57;;;;;;;2.57;2.37;;;19.90;43.90;;;;;;5050430;28;20869;-71
2021/03/23 12:02:24;;;;;;;3.00;2.80;;;20.00;43.80;;;;;;5050459;28;20489;-71
2021/03/23 12:04:51;;;;;;;3.07;2.90;;;20.00;43.80;;;;;;5052439;28;21567;-71
2021/03/23 12:07:30;;;;;;;2.43;2.23;;;19.90;43.80;;;;;;5048538;28;20489;-70
2021/03/23 12:09:57;;;;;;;5.80;2.93;;;20.00;43.90;;;;;;5050098;28;20474;-70
2021/03/23 12:12:27;;;;;;;2.60;2.50;;;20.00;43.80;;;;;;5053515;28;20481;-69
2021/03/23 12:15:02;;;;;;;2.63;2.50;;;20.00;43.70;;;;;;5051578;28;20489;-70
2021/03/23 12:17:28;;;;;;;3.30;2.60;;;20.10;43.80;;;;;;5046582;28;20481;-69
2021/03/23 12:19:56;;;;;;;3.20;2.80;;;20.10;43.70;;;;;;5046209;28;20493;-71
2021/03/23 12:22:22;;;;;;;3.83;2.63;;;20.10;43.60;;;;;;5048471;28;21064;-70
2021/03/23 12:24:49;;;;;;;5.97;3.80;;;20.10;43.60;;;;;;5047160;28;21014;-70
2021/03/23 12:27:16;;;;;;;2.83;2.50;;;20.10;43.50;;;;;;5050396;28;20469;-71
2021/03/23 12:29:42;;;;;;;3.33;3.13;;;20.10;43.60;;;;;;5035145;28;20487;-70
2021/03/23 12:32:10;;;;;;;2.90;2.70;;;20.10;43.50;;;;;;5049205;28;20485;-71
2021/03/23 12:34:37;;;;;;;3.47;3.17;;;20.10;43.60;;;;;;5050751;28;20991;-71
2021/03/23 12:37:03;;;;;;;4.50;3.10;;;20.10;43.70;;;;;;5050959;28;20536;-70
2021/03/23 12:39:29;;;;;;;3.37;3.17;;;20.00;43.50;;;;;;5048533;28;20478;-70
2021/03/23 12:41:55;;;;;;;2.60;2.50;;;20.10;43.70;;;;;;5048713;28;20490;-70
2021/03/23 12:44:21;;;;;;;2.90;2.70;;;20.10;43.70;;;;;;5050850;28;21298;-71
2021/03/23 12:46:48;;;;;;;3.00;2.80;;;20.10;43.60;;;;;;5051393;28;21040;-70
2021/03/23 12:49:14;;;;;;;3.97;2.87;;;20.10;43.70;;;;;;5044921;28;20959;-69
2021/03/23 12:51:42;;;;;;;4.40;2.53;;;20.10;43.50;;;;;;5065636;28;20487;-70
2021/03/23 12:54:12;;;;;;;2.90;2.73;;;20.10;43.50;;;;;;5052238;28;20481;-71
2021/03/23 12:56:38;;;;;;;4.23;3.03;;;20.10;43.50;;;;;;5049351;28;20472;-70
2021/03/23 12:59:05;;;;;;;4.17;3.07;;;20.00;43.50;;;;;;5048245;28;20500;-70
2021/03/23 13:01:31;;;;;;;10.70;2.50;;;20.00;43.50;;;;;;5046421;28;20489;-70